createdAt,value
2023-01-19T00:01:32.591Z,3.25
2023-01-19T00:04:08.238Z,3.17
2023-01-19T00:06:43.659Z,3.63
2023-01-19T00:09:20.086Z,3.33
2023-01-19T00:11:55.508Z,3.25
2023-01-19T00:14:31.573Z,3.30
2023-01-19T00:17:07.765Z,3.08
2023-01-19T00:19:44.105Z,3.30
2023-01-19T00:22:20.530Z,3.22
2023-01-19T00:24:55.281Z,3.22
2023-01-19T00:27:29.506Z,2.72
2023-01-19T00:30:04.376Z,3.08
2023-01-19T00:32:40.736Z,2.78
2023-01-19T00:35:17.279Z,3.05
2023-01-19T00:37:52.953Z,3.03
2023-01-19T00:40:28.692Z,3.47
2023-01-19T00:43:04.695Z,2.95
2023-01-19T00:45:40.562Z,3.45
2023-01-19T00:48:18.314Z,3.03
2023-01-19T00:50:54.922Z,2.90
2023-01-19T00:53:34.121Z,2.95
2023-01-19T00:56:09.868Z,2.95
2023-01-19T00:58:45.104Z,3.40
2023-01-19T01:01:20.909Z,2.90
2023-01-19T01:04:17.803Z,2.90
2023-01-19T01:06:53.760Z,3.10
2023-01-19T01:09:29.447Z,3.13
2023-01-19T01:12:06.199Z,2.80
2023-01-19T01:14:41.785Z,3.30
2023-01-19T01:17:17.259Z,3.17
2023-01-19T01:19:54.753Z,2.95
2023-01-19T01:22:31.781Z,3.17
2023-01-19T01:25:07.704Z,2.97
2023-01-19T01:27:43.811Z,2.85
2023-01-19T01:30:21.414Z,2.83
2023-01-19T01:32:56.175Z,2.88
2023-01-19T01:35:34.239Z,2.78
2023-01-19T01:38:09.320Z,3.03
2023-01-19T01:40:47.531Z,2.72
2023-01-19T01:43:22.670Z,3.10
2023-01-19T01:45:58.053Z,2.78
2023-01-19T01:48:35.050Z,3.28
2023-01-19T01:51:31.009Z,3.00
2023-01-19T01:54:11.946Z,3.17
2023-01-19T01:56:47.926Z,2.63
2023-01-19T01:59:31.314Z,2.65
2023-01-19T02:02:23.164Z,3.20
2023-01-19T02:04:59.279Z,3.13
2023-01-19T02:07:57.517Z,2.83
2023-01-19T02:10:48.697Z,2.95
2023-01-19T02:13:27.224Z,2.95
2023-01-19T02:16:04.972Z,2.95
2023-01-19T02:18:40.131Z,3.38
2023-01-19T02:21:16.030Z,2.75
2023-01-19T02:23:53.190Z,2.72
2023-01-19T02:26:29.834Z,2.53
2023-01-19T02:29:05.663Z,2.92
2023-01-19T02:31:41.851Z,2.78
2023-01-19T02:34:19.341Z,2.40
2023-01-19T02:36:58.168Z,2.45
2023-01-19T02:39:41.330Z,3.10
2023-01-19T02:42:21.631Z,2.65
2023-01-19T02:45:00.188Z,2.60
2023-01-19T02:47:43.749Z,2.80
2023-01-19T02:50:47.860Z,2.50
2023-01-19T02:53:54.292Z,2.75
2023-01-19T02:56:57.436Z,2.90
2023-01-19T02:59:44.387Z,2.30
2023-01-19T03:02:26.300Z,2.53
2023-01-19T03:05:15.560Z,2.22
2023-01-19T03:07:59.614Z,2.75
2023-01-19T03:11:29.483Z,2.30
2023-01-19T03:14:18.679Z,2.53
2023-01-19T03:16:59.048Z,2.33
2023-01-19T03:19:38.053Z,2.40
2023-01-19T03:22:18.189Z,2.95
2023-01-19T03:24:58.116Z,2.90
2023-01-19T03:27:37.781Z,2.83
2023-01-19T03:30:14.150Z,2.70
2023-01-19T03:32:53.101Z,2.60
2023-01-19T03:35:30.783Z,2.85
2023-01-19T03:38:07.737Z,2.35
2023-01-19T03:40:42.228Z,2.72
2023-01-19T03:43:18.830Z,3.00
2023-01-19T03:45:53.795Z,2.55
2023-01-19T03:48:31.020Z,2.97
2023-01-19T03:51:08.549Z,2.70
2023-01-19T03:53:42.883Z,2.80
2023-01-19T03:56:22.214Z,2.55
2023-01-19T03:58:58.056Z,2.53
2023-01-19T04:01:33.311Z,2.72
2023-01-19T04:04:11.017Z,2.63
2023-01-19T04:06:45.539Z,2.50
2023-01-19T04:09:20.312Z,2.55
2023-01-19T04:11:54.747Z,2.53
2023-01-19T04:14:29.645Z,2.95
2023-01-19T04:17:04.219Z,2.08
2023-01-19T04:19:41.196Z,2.40
2023-01-19T04:22:16.084Z,2.20
2023-01-19T04:24:50.523Z,2.05
2023-01-19T04:27:25.232Z,2.40
2023-01-19T04:30:02.014Z,2.17
2023-01-19T04:32:40.090Z,2.63
2023-01-19T04:35:16.797Z,2.25
2023-01-19T04:37:51.052Z,2.40
2023-01-19T04:40:27.009Z,2.20
2023-01-19T04:43:01.942Z,2.10
2023-01-19T04:45:38.455Z,2.50
2023-01-19T04:48:13.377Z,2.15
2023-01-19T04:50:50.479Z,2.22
2023-01-19T04:53:26.863Z,1.80
2023-01-19T04:56:02.544Z,2.30
2023-01-19T04:58:36.705Z,2.00
2023-01-19T05:01:13.626Z,2.55
2023-01-19T05:03:48.622Z,2.13
2023-01-19T05:06:25.498Z,2.10
2023-01-19T05:09:00.412Z,2.38
2023-01-19T05:11:34.821Z,2.33
2023-01-19T05:14:09.808Z,2.20
2023-01-19T05:16:44.665Z,2.50
2023-01-19T05:19:19.151Z,1.90
2023-01-19T05:21:56.266Z,2.50
2023-01-19T05:24:31.174Z,2.05
2023-01-19T05:27:05.889Z,2.22
2023-01-19T05:29:41.519Z,2.17
2023-01-19T05:32:17.404Z,2.10
2023-01-19T05:34:52.369Z,2.30
2023-01-19T05:37:31.299Z,2.38
2023-01-19T05:40:06.206Z,2.47
2023-01-19T05:42:45.405Z,1.88
2023-01-19T05:45:20.152Z,2.40
2023-01-19T05:47:55.062Z,2.45
2023-01-19T05:50:29.499Z,2.50
2023-01-19T05:53:06.712Z,2.17
2023-01-19T05:55:41.907Z,2.53
2023-01-19T05:58:19.233Z,2.30
2023-01-19T06:00:53.550Z,2.53
2023-01-19T06:03:29.188Z,2.78
2023-01-19T06:06:04.275Z,2.90
2023-01-19T06:08:40.534Z,2.45
2023-01-19T06:11:14.776Z,2.28
2023-01-19T06:13:49.164Z,2.28
2023-01-19T06:16:24.614Z,2.63
2023-01-19T06:18:59.435Z,2.92
2023-01-19T06:21:33.747Z,2.53
2023-01-19T06:24:10.599Z,2.60
2023-01-19T06:26:45.701Z,2.70
2023-01-19T06:29:20.595Z,2.60
2023-01-19T06:31:55.821Z,2.53
2023-01-19T06:34:32.360Z,2.70
2023-01-19T06:37:07.832Z,2.53
2023-01-19T06:39:47.177Z,2.30
2023-01-19T06:42:24.638Z,2.70
2023-01-19T06:45:05.257Z,2.40
2023-01-19T06:47:44.244Z,2.40
2023-01-19T06:50:24.690Z,2.38
2023-01-19T06:53:02.843Z,2.53
2023-01-19T06:55:40.833Z,3.00
2023-01-19T06:58:16.796Z,2.92
2023-01-19T07:00:54.880Z,2.75
2023-01-19T07:03:32.523Z,2.70
2023-01-19T07:06:10.376Z,2.25
2023-01-19T07:08:48.063Z,2.35
2023-01-19T07:11:30.560Z,2.70
2023-01-19T07:14:06.747Z,2.25
2023-01-19T07:16:42.355Z,2.08
2023-01-19T07:19:19.981Z,2.20
2023-01-19T07:21:55.946Z,2.80
2023-01-19T07:24:32.942Z,2.55
2023-01-19T07:27:14.215Z,2.30
2023-01-19T07:29:48.786Z,2.35
2023-01-19T07:32:23.148Z,2.30
2023-01-19T07:34:57.521Z,1.98
2023-01-19T07:37:37.120Z,2.10
2023-01-19T07:40:14.423Z,2.22
2023-01-19T07:42:53.704Z,2.50
2023-01-19T07:45:29.032Z,2.10
2023-01-19T07:48:04.255Z,2.92
2023-01-19T07:50:43.893Z,2.65
2023-01-19T07:53:18.882Z,2.35
2023-01-19T07:55:59.585Z,2.28
2023-01-19T07:58:36.383Z,2.38
2023-01-19T08:01:12.113Z,2.63
2023-01-19T08:03:46.321Z,2.53
2023-01-19T08:06:24.650Z,4.55
2023-01-19T08:09:00.159Z,3.63
2023-01-19T08:11:34.973Z,3.30
2023-01-19T08:14:11.008Z,2.80
2023-01-19T08:16:45.997Z,2.42
2023-01-19T08:19:23.060Z,2.55
2023-01-19T08:21:58.336Z,2.33
2023-01-19T08:24:33.682Z,1.90
2023-01-19T08:27:14.204Z,1.67
2023-01-19T08:29:51.068Z,1.92
2023-01-19T08:32:29.210Z,2.10
2023-01-19T08:35:03.818Z,1.80
2023-01-19T08:37:38.373Z,2.03
2023-01-19T08:40:16.443Z,1.75
2023-01-19T08:42:51.826Z,1.80
2023-01-19T08:45:28.793Z,2.22
2023-01-19T08:48:06.587Z,2.10
2023-01-19T08:50:45.051Z,2.35
2023-01-19T08:53:22.693Z,2.30
2023-01-19T08:56:04.173Z,1.85
2023-01-19T08:58:39.743Z,2.35
2023-01-19T09:01:27.434Z,2.30
2023-01-19T09:04:03.988Z,1.83
2023-01-19T09:06:41.924Z,2.50
2023-01-19T09:09:17.315Z,2.38
2023-01-19T09:11:57.326Z,2.28
2023-01-19T09:14:45.041Z,2.13
2023-01-19T09:17:30.614Z,2.40
2023-01-19T09:20:06.371Z,2.85
2023-01-19T09:22:44.150Z,2.13
2023-01-19T09:25:20.149Z,2.35
2023-01-19T09:27:55.461Z,1.90
2023-01-19T09:30:31.806Z,2.17
2023-01-19T09:33:14.901Z,2.17
2023-01-19T09:35:53.645Z,2.10
2023-01-19T09:38:36.224Z,2.05
2023-01-19T09:41:24.236Z,2.00
2023-01-19T09:44:02.690Z,1.92
2023-01-19T09:46:43.150Z,2.30
2023-01-19T09:49:23.178Z,2.00
2023-01-19T09:51:59.474Z,1.83
2023-01-19T09:54:42.671Z,1.92
2023-01-19T09:57:29.182Z,1.90
2023-01-19T10:00:05.550Z,2.33
2023-01-19T10:02:53.648Z,2.10
2023-01-19T10:05:35.884Z,2.17
2023-01-19T10:08:24.557Z,1.95
2023-01-19T10:11:01.852Z,1.92
2023-01-19T10:13:48.665Z,1.80
2023-01-19T10:16:36.332Z,1.73
2023-01-19T10:19:31.169Z,1.42
2023-01-19T10:22:18.336Z,1.85
2023-01-19T10:25:03.056Z,1.60
2023-01-19T10:27:49.248Z,1.35
2023-01-19T10:30:27.258Z,1.50
2023-01-19T10:33:02.859Z,1.60
2023-01-19T10:35:41.735Z,1.60
2023-01-19T10:38:28.546Z,1.63
2023-01-19T10:41:20.406Z,1.60
2023-01-19T10:44:05.103Z,1.80
2023-01-19T10:46:56.958Z,1.60
2023-01-19T10:49:35.106Z,1.58
2023-01-19T10:52:12.643Z,1.75
2023-01-19T10:54:54.849Z,2.20
2023-01-19T10:57:36.266Z,1.83
2023-01-19T11:00:39.560Z,1.52
2023-01-19T11:03:29.187Z,1.95
2023-01-19T11:06:26.843Z,2.08
2023-01-19T11:09:21.257Z,1.77
2023-01-19T11:11:59.924Z,1.90
2023-01-19T11:14:36.263Z,2.22
2023-01-19T11:17:21.150Z,2.42
2023-01-19T11:20:03.085Z,2.00
2023-01-19T11:22:40.937Z,1.77
2023-01-19T11:25:29.907Z,2.05
2023-01-19T11:28:07.971Z,2.08
2023-01-19T11:30:43.326Z,1.67
2023-01-19T11:33:30.689Z,1.90
2023-01-19T11:36:23.048Z,1.95
2023-01-19T11:39:04.257Z,1.90
2023-01-19T11:41:42.088Z,2.42
2023-01-19T11:44:25.304Z,1.98
2023-01-19T11:47:03.433Z,1.95
2023-01-19T11:49:48.190Z,2.40
2023-01-19T11:52:31.591Z,2.63
2023-01-19T11:55:19.199Z,2.08
2023-01-19T11:57:57.802Z,1.90
2023-01-19T12:00:42.777Z,2.38
2023-01-19T12:03:23.822Z,2.45
2023-01-19T12:06:03.877Z,2.30
2023-01-19T12:08:44.079Z,2.13
2023-01-19T12:11:24.478Z,2.10
2023-01-19T12:14:00.640Z,2.10
2023-01-19T12:16:42.682Z,2.00
2023-01-19T12:19:23.035Z,1.90
2023-01-19T12:22:00.107Z,1.75
2023-01-19T12:24:42.243Z,1.92
2023-01-19T12:27:27.321Z,2.20
2023-01-19T12:30:03.285Z,1.92
2023-01-19T12:32:42.190Z,2.10
2023-01-19T12:35:48.923Z,1.90
2023-01-19T12:38:50.902Z,2.30
2023-01-19T12:41:28.149Z,1.88
2023-01-19T12:44:37.584Z,2.33
2023-01-19T12:47:26.099Z,2.10
2023-01-19T12:50:09.541Z,2.08
2023-01-19T12:52:51.322Z,2.08
2023-01-19T12:55:32.854Z,2.00
2023-01-19T12:58:09.709Z,2.33
2023-01-19T13:00:47.139Z,2.00
2023-01-19T13:03:51.424Z,2.28
2023-01-19T13:07:07.445Z,1.88
2023-01-19T13:09:44.924Z,1.80
2023-01-19T13:12:28.589Z,1.80
2023-01-19T13:15:39.500Z,2.03
2023-01-19T13:18:21.921Z,1.73
2023-01-19T13:21:04.428Z,2.03
2023-01-19T13:24:00.541Z,2.28
2023-01-19T13:26:39.016Z,1.73
2023-01-19T13:29:24.028Z,2.10
2023-01-19T13:32:04.464Z,2.03
2023-01-19T13:34:47.430Z,1.83
2023-01-19T13:37:24.926Z,2.42
2023-01-19T13:40:03.180Z,2.17
2023-01-19T13:42:41.016Z,2.08
2023-01-19T13:45:31.350Z,1.77
2023-01-19T13:48:09.445Z,2.35
2023-01-19T13:50:44.982Z,2.22
2023-01-19T13:53:25.986Z,2.03
2023-01-19T13:56:23.793Z,2.10
2023-01-19T13:59:15.268Z,2.33
2023-01-19T14:01:52.586Z,1.75
2023-01-19T14:04:35.491Z,2.10
2023-01-19T14:07:27.769Z,2.20
2023-01-19T14:10:11.139Z,1.83
2023-01-19T14:12:59.090Z,2.25
2023-01-19T14:15:36.834Z,1.90
2023-01-19T14:18:25.696Z,1.92
2023-01-19T14:21:04.515Z,1.90
2023-01-19T14:23:46.632Z,2.10
2023-01-19T14:26:48.068Z,2.20
2023-01-19T14:29:31.765Z,1.80
2023-01-19T14:32:17.487Z,1.90
2023-01-19T14:34:55.135Z,1.80
2023-01-19T14:37:33.390Z,2.00
2023-01-19T14:40:21.429Z,2.20
2023-01-19T14:43:01.696Z,2.67
2023-01-19T14:45:42.137Z,2.80
2023-01-19T14:48:22.212Z,2.70
2023-01-19T14:51:07.695Z,2.20
2023-01-19T14:53:43.660Z,2.65
2023-01-19T14:56:27.842Z,2.72
2023-01-19T14:59:05.249Z,2.80
2023-01-19T15:01:42.979Z,2.65
2023-01-19T15:04:18.279Z,2.55
2023-01-19T15:06:53.391Z,2.58
2023-01-19T15:09:30.142Z,2.72
2023-01-19T15:12:06.135Z,2.75
2023-01-19T15:14:41.279Z,2.92
2023-01-19T15:17:26.994Z,3.05
2023-01-19T15:20:03.002Z,2.63
2023-01-19T15:22:38.944Z,2.50
2023-01-19T15:25:18.424Z,2.65
2023-01-19T15:27:54.562Z,1.98
2023-01-19T15:30:32.595Z,2.50
2023-01-19T15:33:10.150Z,2.20
2023-01-19T15:35:45.551Z,1.85
2023-01-19T15:38:20.991Z,1.52
2023-01-19T15:40:57.334Z,1.88
2023-01-19T15:43:34.492Z,1.80
2023-01-19T15:46:08.864Z,1.90
2023-01-19T15:48:45.187Z,1.58
2023-01-19T15:51:21.119Z,1.52
2023-01-19T15:53:56.990Z,1.67
2023-01-19T15:56:32.405Z,1.50
2023-01-19T15:59:06.719Z,1.77
2023-01-19T16:01:41.559Z,1.60
2023-01-19T16:04:18.261Z,1.60
2023-01-19T16:06:52.502Z,1.60
2023-01-19T16:09:26.645Z,1.27
2023-01-19T16:12:01.779Z,1.65
2023-01-19T16:14:35.936Z,1.40
2023-01-19T16:17:10.460Z,1.17
2023-01-19T16:19:46.694Z,1.52
2023-01-19T16:22:21.620Z,1.50
2023-01-19T16:24:58.035Z,1.25
2023-01-19T16:27:33.275Z,1.20
2023-01-19T16:30:08.871Z,1.60
2023-01-19T16:32:43.851Z,1.33
2023-01-19T16:35:21.783Z,1.27
2023-01-19T16:37:56.396Z,1.30
2023-01-19T16:40:31.740Z,1.30
2023-01-19T16:43:07.054Z,1.35
2023-01-19T16:45:43.946Z,1.13
2023-01-19T16:48:18.367Z,1.27
2023-01-19T16:51:02.390Z,1.38
2023-01-19T16:53:38.318Z,1.70
2023-01-19T16:56:13.925Z,1.67
2023-01-19T16:58:49.170Z,1.33
2023-01-19T17:01:24.348Z,1.50
2023-01-19T17:04:00.857Z,1.30
2023-01-19T17:06:40.628Z,1.80
2023-01-19T17:09:16.404Z,1.70
2023-01-19T17:11:53.118Z,1.73
2023-01-19T17:14:30.698Z,1.60
2023-01-19T17:17:11.049Z,1.88
2023-01-19T17:19:47.386Z,1.90
2023-01-19T17:22:25.694Z,1.58
2023-01-19T17:25:00.639Z,1.48
2023-01-19T17:27:37.542Z,2.00
2023-01-19T17:30:13.237Z,1.98
2023-01-19T17:32:48.191Z,1.80
2023-01-19T17:35:22.849Z,2.08
2023-01-19T17:38:01.946Z,1.60
2023-01-19T17:40:37.120Z,1.88
2023-01-19T17:43:11.805Z,1.50
2023-01-19T17:45:47.504Z,1.70
2023-01-19T17:48:22.722Z,1.52
2023-01-19T17:50:57.332Z,1.52
2023-01-19T17:53:33.661Z,1.55
2023-01-19T17:56:09.115Z,1.35
2023-01-19T17:58:44.587Z,1.95
2023-01-19T18:01:22.202Z,1.70
2023-01-19T18:03:56.933Z,1.77
2023-01-19T18:06:31.823Z,1.83
2023-01-19T18:09:08.989Z,1.67
2023-01-19T18:11:44.410Z,1.80
2023-01-19T18:14:18.626Z,1.45
2023-01-19T18:16:53.871Z,1.70
2023-01-19T18:19:28.603Z,1.58
2023-01-19T18:22:02.868Z,1.63
2023-01-19T18:24:38.849Z,1.65
2023-01-19T18:27:13.509Z,1.50
2023-01-19T18:29:48.434Z,1.48
2023-01-19T18:32:24.574Z,1.77
2023-01-19T18:34:59.729Z,1.77
2023-01-19T18:37:35.271Z,1.80
2023-01-19T18:40:14.309Z,2.17
2023-01-19T18:42:49.838Z,1.98
2023-01-19T18:45:25.081Z,2.10
2023-01-19T18:48:01.596Z,2.38
2023-01-19T18:50:37.380Z,2.58
2023-01-19T18:53:12.568Z,2.00
2023-01-19T18:55:55.356Z,1.90
2023-01-19T18:58:31.769Z,1.88
2023-01-19T19:01:07.840Z,1.92
2023-01-19T19:03:43.928Z,2.00
2023-01-19T19:06:22.176Z,1.85
2023-01-19T19:08:59.787Z,1.70
2023-01-19T19:11:37.443Z,1.90
2023-01-19T19:14:15.405Z,1.92
2023-01-19T19:16:50.525Z,2.10
2023-01-19T19:19:28.593Z,1.80
2023-01-19T19:22:05.098Z,1.63
2023-01-19T19:24:41.853Z,1.42
2023-01-19T19:27:18.746Z,1.65
2023-01-19T19:29:53.585Z,2.10
2023-01-19T19:32:28.790Z,1.70
2023-01-19T19:35:03.690Z,1.80
2023-01-19T19:37:37.931Z,1.70
2023-01-19T19:40:13.170Z,1.63
2023-01-19T19:42:51.667Z,1.98
2023-01-19T19:45:26.995Z,1.90
2023-01-19T19:48:01.139Z,2.00
2023-01-19T19:50:36.419Z,1.90
2023-01-19T19:53:11.257Z,1.80
2023-01-19T19:55:45.498Z,2.03
2023-01-19T19:58:21.537Z,1.55
2023-01-19T20:00:56.343Z,2.00
2023-01-19T20:03:32.303Z,2.05
2023-01-19T20:06:08.510Z,1.80
2023-01-19T20:08:42.954Z,2.10
2023-01-19T20:11:18.953Z,1.80
2023-01-19T20:13:55.748Z,1.90
2023-01-19T20:16:30.820Z,2.25
2023-01-19T20:19:05.647Z,2.10
2023-01-19T20:21:43.237Z,2.05
2023-01-19T20:24:19.315Z,1.80
2023-01-19T20:26:54.435Z,1.98
2023-01-19T20:29:30.531Z,1.90
2023-01-19T20:32:05.183Z,1.90
2023-01-19T20:34:40.322Z,1.73
2023-01-19T20:37:15.686Z,1.85
2023-01-19T20:39:50.475Z,1.83
2023-01-19T20:42:25.428Z,1.88
2023-01-19T20:45:02.186Z,2.25
2023-01-19T20:47:36.440Z,2.50
2023-01-19T20:50:11.008Z,2.08
2023-01-19T20:52:46.377Z,1.95
2023-01-19T20:55:21.413Z,1.90
2023-01-19T20:57:55.871Z,2.28
2023-01-19T21:00:32.200Z,2.30
2023-01-19T21:03:07.200Z,2.90
2023-01-19T21:05:42.145Z,4.15
2023-01-19T21:08:17.330Z,2.30
2023-01-19T21:10:51.633Z,2.95
2023-01-19T21:13:26.748Z,3.53
2023-01-19T21:16:03.714Z,2.70
2023-01-19T21:18:38.841Z,2.30
2023-01-19T21:21:29.324Z,2.00
2023-01-19T21:24:06.514Z,2.00
2023-01-19T21:26:43.408Z,1.83
2023-01-19T21:29:17.688Z,2.05
2023-01-19T21:31:54.327Z,1.85
2023-01-19T21:34:35.237Z,1.80
2023-01-19T21:37:11.861Z,1.83
2023-01-19T21:39:51.101Z,2.40
2023-01-19T21:42:28.405Z,1.88
2023-01-19T21:45:03.250Z,1.92
2023-01-19T21:47:40.306Z,1.50
2023-01-19T21:50:15.478Z,1.98
2023-01-19T21:52:53.542Z,1.95
2023-01-19T21:55:29.497Z,1.88
2023-01-19T21:58:04.415Z,1.65
2023-01-19T22:00:42.738Z,1.70
2023-01-19T22:03:19.515Z,1.85
2023-01-19T22:05:54.101Z,2.50
2023-01-19T22:08:29.398Z,1.60
2023-01-19T22:11:08.226Z,1.85
2023-01-19T22:13:43.765Z,2.50
2023-01-19T22:16:19.063Z,3.05
2023-01-19T22:19:00.889Z,2.10
2023-01-19T22:21:37.216Z,1.80
2023-01-19T22:24:12.195Z,2.58
2023-01-19T22:26:46.976Z,2.25
2023-01-19T22:29:21.656Z,2.17
2023-01-19T22:31:56.041Z,2.35
2023-01-19T22:34:32.951Z,1.95
2023-01-19T22:37:08.027Z,1.80
2023-01-19T22:39:43.476Z,2.30
2023-01-19T22:42:18.390Z,1.95
2023-01-19T22:44:53.076Z,1.83
2023-01-19T22:47:27.568Z,1.98
2023-01-19T22:50:04.331Z,1.88
2023-01-19T22:52:39.068Z,1.80
2023-01-19T22:55:14.372Z,1.90
2023-01-19T22:57:49.995Z,1.27
2023-01-19T23:00:25.426Z,1.70
2023-01-19T23:02:59.913Z,2.03
2023-01-19T23:05:40.182Z,1.67
2023-01-19T23:08:14.531Z,1.80
2023-01-19T23:10:49.301Z,1.50
2023-01-19T23:13:24.453Z,1.73
2023-01-19T23:15:59.327Z,1.70
2023-01-19T23:18:34.091Z,1.75
2023-01-19T23:21:12.387Z,1.95
2023-01-19T23:23:47.867Z,2.10
2023-01-19T23:26:23.422Z,2.35
2023-01-19T23:28:59.977Z,1.90
2023-01-19T23:31:36.239Z,2.00
2023-01-19T23:34:11.408Z,2.17
2023-01-19T23:36:48.651Z,2.40
2023-01-19T23:39:24.397Z,2.05
2023-01-19T23:41:58.882Z,2.33
2023-01-19T23:44:35.246Z,1.98
2023-01-19T23:47:09.833Z,1.83
2023-01-19T23:49:44.117Z,2.10
2023-01-19T23:52:20.885Z,2.13
2023-01-19T23:54:55.818Z,2.15
2023-01-19T23:57:30.629Z,2.17
